Weather reports worldwide

Advertisment
Itsaso, Spain (8037): temperature & dewpoint: 10.07.2018 18:00:00 - 16.07.2018 18:00:00 (CEST)Itsaso, Spain (8037): wind speed & gusts: 10.07.2018 18:00:00 - 16.07.2018 18:00:00 (CEST)Itsaso, Spain (8037): wind direction: 10.07.2018 18:00:00 - 16.07.2018 18:00:00 (CEST)Itsaso, Spain (8037): reduced air pressure: 10.07.2018 18:00:00 - 16.07.2018 18:00:00 (CEST)Itsaso, Spain (8037): precipitation: 10.07.2018 18:00:00 - 16.07.2018 18:00:00 (CEST)
Date & Time tt [°C] td [°C] ff [km/h] ff [kn] fx [km/h] fx [kn] dd ppp [hPa] rr [mm]
16.07.2018 18:00:00 - - - - - - - - -
16.07.2018 17:00:00 16,4 15,6 14 8 29 15 W 1019,6 0,9
16.07.2018 16:00:00 17,3 16,1 13 7 29 16 W 1019,4 0,0
16.07.2018 15:00:00 15,9 15,7 8 4 24 13 WNW 1019,4 2,6
16.07.2018 14:00:00 15,6 15,3 18 10 36 20 W 1019,1 -
16.07.2018 13:00:00 16,3 14,1 25 14 45 24 WNW 1018,7 0,1
16.07.2018 12:00:00 17,5 13,7 18 10 28 15 W 1017,8 0,0
16.07.2018 11:00:00 17,1 14,1 11 6 28 15 WNW 1017,8 0,0
16.07.2018 10:00:00 16,1 13,6 16 9 37 20 W 1017,4 0,0
16.07.2018 09:00:00 15,2 14,4 15 8 28 15 W 1016,7 0,4
16.07.2018 08:00:00 15,6 14,8 16 9 37 20 W 1017,1 -
16.07.2018 07:00:00 15,7 15,5 16 9 31 17 W 1016,2 0,2
16.07.2018 06:00:00 16,0 15,9 15 8 31 17 W 1015,8 1,3
16.07.2018 05:00:00 16,7 16,6 14 8 27 15 W 1015,6 0,0
16.07.2018 04:00:00 16,4 16,2 6 4 16 9 W 1015,7 0,0
16.07.2018 03:00:00 16,7 16,6 3 2 10 6 W 1015,9 0,0
16.07.2018 02:00:00 16,8 16,6 1 1 - - SW 1016,2 -
16.07.2018 01:00:00 - - - - - - - - -
16.07.2018 00:00:00 - - - - - - - - -
15.07.2018 23:00:00 - - - - - - - - -
15.07.2018 22:00:00 - - - - - - - - -
15.07.2018 21:00:00 - - - - - - - - -
15.07.2018 20:00:00 18,4 18,1 2 1 10 5 ESE 1014,0 -
15.07.2018 19:00:00 19,5 18,0 2 1 14 8 NNE 1013,7 0,4
15.07.2018 18:00:00 20,3 17,5 7 4 22 12 NNE 1013,2 0,3
15.07.2018 17:00:00 22,5 17,4 8 4 24 13 N 1012,3 0,0
15.07.2018 16:00:00 24,0 17,9 8 4 18 10 NNW 1012,3 0,0
15.07.2018 15:00:00 24,5 17,0 6 3 19 10 N 1012,5 0,0
15.07.2018 14:00:00 23,8 16,8 4 2 14 8 WNW 1013,0 -
15.07.2018 13:00:00 23,4 16,9 1 1 13 7 W 1013,5 0,0
15.07.2018 12:00:00 23,2 16,7 8 4 17 9 NW 1013,8 0,0
15.07.2018 11:00:00 21,2 16,1 8 5 17 9 WNW 1014,2 0,0
15.07.2018 10:00:00 20,1 17,7 5 3 10 5 WNW 1014,5 0,0
15.07.2018 09:00:00 18,0 17,9 1 1 5 3 W 1014,8 0,0
15.07.2018 08:00:00 16,3 16,1 2 1 5 3 WNW 1015,2 -
15.07.2018 07:00:00 15,7 15,5 3 2 5 3 ESE 1015,2 0,0
15.07.2018 06:00:00 16,0 15,9 3 2 5 3 ESE 1014,9 0,0
15.07.2018 05:00:00 16,0 15,9 0 0 5 3 W 1014,7 0,0
15.07.2018 04:00:00 16,4 16,2 3 2 8 4 WSW 1015,0 0,0
15.07.2018 03:00:00 16,1 16,0 2 1 7 4 WSW 1015,4 0,0
15.07.2018 02:00:00 16,1 16,0 2 1 13 7 E 1015,8 -
15.07.2018 01:00:00 16,5 16,3 4 2 8 4 ESE 1016,1 0,0
15.07.2018 00:00:00 16,4 16,2 1 1 10 5 W 1015,7 0,0
14.07.2018 23:00:00 16,6 16,5 2 1 10 5 SW 1015,3 0,1
14.07.2018 22:00:00 17,4 16,9 3 2 9 5 SE 1014,6 0,4
14.07.2018 21:00:00 18,1 17,1 0 0 30 16 SSE 1014,5 0,9
14.07.2018 20:00:00 20,6 19,8 6 3 24 13 W 1013,3 -
14.07.2018 19:00:00 23,4 19,1 6 4 23 12 NNW 1013,0 0,0
14.07.2018 18:00:00 26,9 19,8 8 5 19 10 NNW 1012,3 0,0
14.07.2018 17:00:00 27,1 19,4 8 4 18 10 NNW 1012,5 0,0
14.07.2018 16:00:00 27,7 16,3 2 1 13 7 N 1012,8 0,0
14.07.2018 15:00:00 26,7 16,3 3 2 13 7 ESE 1013,4 0,0
14.07.2018 14:00:00 25,7 15,7 4 2 15 8 SE 1013,9 -
14.07.2018 13:00:00 24,8 16,7 4 2 11 6 ESE 1014,7 0,0
14.07.2018 12:00:00 22,5 18,2 4 2 10 6 NE 1015,2 0,0
14.07.2018 11:00:00 20,7 18,8 5 3 10 6 E 1015,8 0,0
14.07.2018 10:00:00 18,5 18,3 1 1 16 9 NW 1016,2 0,0
14.07.2018 09:00:00 16,9 16,7 4 2 13 7 W 1016,4 0,0
14.07.2018 08:00:00 15,2 15,1 5 3 15 8 W 1016,2 -
14.07.2018 07:00:00 15,0 14,8 4 2 11 6 WSW 1016,2 0,1
14.07.2018 06:00:00 15,7 15,5 0 0 3 2 WNW 1016,2 0,0
14.07.2018 05:00:00 16,8 16,6 0 0 11 6 S 1015,8 0,2
14.07.2018 04:00:00 17,3 17,1 4 2 15 8 E 1015,7 0,5
14.07.2018 03:00:00 17,3 17,1 1 1 27 15 SSE 1016,7 4,7
14.07.2018 02:00:00 - - - - - - W - -
14.07.2018 01:00:00 17,9 17,8 6 3 12 7 WNW 1017,7 3,9
14.07.2018 00:00:00 18,2 18,0 1 1 6 4 W 1017,5 0,1
13.07.2018 23:00:00 18,0 17,7 3 1 5 3 SE 1017,1 0,0
13.07.2018 22:00:00 19,0 18,0 2 1 16 9 SE 1016,2 0,0
13.07.2018 21:00:00 19,6 18,1 4 2 19 11 NNW 1016,1 0,0
13.07.2018 20:00:00 20,1 18,9 4 2 10 6 E 1014,6 -
13.07.2018 19:00:00 20,4 18,9 3 2 13 7 E 1015,0 0,0
13.07.2018 18:00:00 21,8 17,4 4 2 14 7 N 1014,8 0,0
13.07.2018 17:00:00 22,6 17,9 5 3 16 9 N 1014,7 0,0
13.07.2018 16:00:00 24,1 18,1 7 4 17 9 N 1014,3 0,0
13.07.2018 15:00:00 24,8 18,2 3 2 13 7 ENE 1014,4 0,0
13.07.2018 14:00:00 23,4 17,9 4 2 10 5 SE 1015,2 -
13.07.2018 13:00:00 20,9 17,5 3 2 11 6 ENE 1015,9 0,0
13.07.2018 12:00:00 18,7 16,3 4 2 8 4 E 1016,8 0,0
13.07.2018 11:00:00 16,3 16,1 2 1 8 5 WSW 1017,4 0,0
13.07.2018 10:00:00 14,8 14,6 1 0 16 9 NE 1017,7 2,6
13.07.2018 09:00:00 13,2 13,1 7 4 15 8 E 1018,4 4,1
13.07.2018 08:00:00 13,4 13,3 2 1 7 4 SE 1018,2 -
13.07.2018 07:00:00 12,9 12,7 0 0 4 2 SW 1017,6 0,0
13.07.2018 06:00:00 12,8 12,6 2 1 5 3 SE 1018,2 0,0
13.07.2018 05:00:00 12,8 12,6 0 0 5 3 SSW 1018,3 0,0
13.07.2018 04:00:00 12,5 12,3 2 1 10 5 SW 1018,1 0,0
13.07.2018 03:00:00 12,6 12,4 0 0 3 2 SW 1018,4 0,0
13.07.2018 02:00:00 13,1 12,6 0 0 4 2 W 1018,6 -
13.07.2018 01:00:00 13,7 12,7 0 0 4 2 WSW 1018,6 0,0
13.07.2018 00:00:00 14,9 12,7 1 1 5 3 SW 1018,6 0,0
12.07.2018 23:00:00 15,8 12,7 1 0 8 4 W 1018,1 0,0
12.07.2018 22:00:00 17,2 12,3 5 3 16 9 NNW 1017,6 0,0
12.07.2018 21:00:00 18,8 13,5 7 4 20 11 NNW 1016,7 0,0
12.07.2018 20:00:00 19,0 14,0 10 5 18 10 NNW 1016,4 -
12.07.2018 19:00:00 20,5 15,3 8 4 22 12 N 1015,8 0,0
12.07.2018 18:00:00 21,2 15,7 8 5 18 10 NNW 1015,7 0,0
12.07.2018 17:00:00 20,6 14,9 10 5 17 9 NW 1015,9 0,0
12.07.2018 16:00:00 20,7 15,3 5 3 14 8 N 1015,9 0,0
12.07.2018 15:00:00 20,1 15,1 4 2 15 8 NNW 1016,4 0,0
12.07.2018 14:00:00 20,0 15,4 11 6 19 10 NNW 1016,4 -
12.07.2018 13:00:00 19,2 15,4 6 3 14 8 N 1016,8 0,0
12.07.2018 12:00:00 18,7 16,5 10 5 20 11 W 1016,5 0,0
12.07.2018 11:00:00 16,5 16,3 9 5 17 9 W 1016,9 0,0
12.07.2018 10:00:00 15,2 15,1 5 3 15 8 NW 1016,7 0,8
12.07.2018 09:00:00 15,6 15,4 7 4 32 17 WNW 1016,2 1,8
12.07.2018 08:00:00 17,4 16,9 3 2 13 7 W 1015,1 -
12.07.2018 07:00:00 16,9 16,4 4 2 11 6 W 1014,8 0,0
12.07.2018 06:00:00 16,6 16,1 4 2 13 7 W 1014,7 0,0
12.07.2018 05:00:00 16,2 15,7 3 1 11 6 W 1014,4 0,0
12.07.2018 04:00:00 16,2 15,7 4 2 10 5 WSW 1014,6 0,0
12.07.2018 03:00:00 17,2 15,9 4 2 8 4 W 1014,9 0,0
12.07.2018 02:00:00 17,6 16,1 2 1 8 4 WSW 1015,0 -
12.07.2018 01:00:00 18,5 16,1 1 1 11 6 W 1015,0 0,0
12.07.2018 00:00:00 18,9 16,1 0 0 19 10 NNW 1014,9 0,0
11.07.2018 23:00:00 19,2 15,9 3 2 19 11 NNE 1014,8 0,0
11.07.2018 22:00:00 19,4 15,7 5 3 25 14 N 1013,9 0,0
11.07.2018 21:00:00 20,3 16,7 6 3 16 8 N 1013,4 0,0
11.07.2018 20:00:00 21,1 16,5 6 3 15 8 N 1013,1 -
11.07.2018 19:00:00 21,1 16,0 5 3 16 9 NNE 1013,2 0,0
11.07.2018 18:00:00 21,4 16,4 8 5 19 10 NNW 1013,2 0,0
11.07.2018 17:00:00 20,9 16,3 4 2 29 16 ENE 1013,6 0,0
11.07.2018 16:00:00 22,2 14,8 14 7 33 18 WNW 1015,6 0,0
11.07.2018 15:00:00 23,1 15,2 9 5 20 11 NNW 1015,4 0,0
11.07.2018 14:00:00 22,3 13,9 8 4 26 14 N 1015,0 -
11.07.2018 13:00:00 22,1 14,5 7 4 19 10 NNE 1014,4 0,0
11.07.2018 12:00:00 22,2 15,1 6 4 15 8 NNW 1014,6 0,0
11.07.2018 11:00:00 20,2 15,6 5 3 12 6 W 1015,2 0,0
11.07.2018 10:00:00 18,8 15,7 8 4 13 7 W 1015,8 0,0
11.07.2018 09:00:00 16,5 15,7 4 2 10 6 WNW 1016,4 0,0
11.07.2018 08:00:00 14,7 14,4 4 2 11 6 W 1016,9 -
11.07.2018 07:00:00 13,9 13,6 3 2 14 7 SW 1017,1 0,0
11.07.2018 06:00:00 13,7 13,4 4 2 15 8 WSW 1017,0 0,0
11.07.2018 05:00:00 13,1 12,7 3 2 11 6 WSW 1017,4 0,0
11.07.2018 04:00:00 13,5 13,4 4 2 9 5 WSW 1017,5 0,0
11.07.2018 03:00:00 14,0 13,7 1 1 9 5 WSW 1017,7 0,0
11.07.2018 02:00:00 14,6 14,1 3 1 8 4 WSW 1018,0 -
11.07.2018 01:00:00 15,4 14,4 1 1 6 4 WSW 1018,2 0,0
11.07.2018 00:00:00 16,5 15,0 0 0 3 2 S 1018,1 0,0
10.07.2018 23:00:00 17,8 15,3 0 0 3 2 SW 1017,9 0,0
10.07.2018 22:00:00 19,4 14,9 2 1 14 8 WNW 1017,4 0,0
10.07.2018 21:00:00 21,6 13,3 7 4 18 10 NNW 1016,7 0,0
10.07.2018 20:00:00 23,0 12,6 6 4 22 12 N 1016,4 -
10.07.2018 19:00:00 23,4 13,6 7 4 21 11 NNE 1016,4 0,0
10.07.2018 18:00:00 24,2 14,0 6 4 19 11 NNE 1016,2 0,0

tt = temperature
td = dewpoint
ff = wind speed
fx = gusts
dd = wind direction
ppp = reduced air pressure
rr = precipitation

Next stations